createdAt,value
2022-12-23T00:02:39.277Z,51.67
2022-12-23T00:05:42.190Z,45.63
2022-12-23T00:08:46.820Z,41.30
2022-12-23T00:12:08.800Z,38.88
2022-12-23T00:15:13.120Z,42.80
2022-12-23T00:18:16.194Z,41.30
2022-12-23T00:21:18.729Z,42.50
2022-12-23T00:24:24.400Z,42.15
2022-12-23T00:27:26.767Z,34.95
2022-12-23T00:30:30.051Z,38.13
2022-12-23T00:33:37.890Z,50.47
2022-12-23T00:36:40.930Z,49.28
2022-12-23T00:40:06.534Z,44.30
2022-12-23T00:43:09.920Z,38.10
2022-12-23T00:46:12.326Z,39.03
2022-12-23T00:49:36.322Z,43.75
2022-12-23T00:52:38.721Z,43.37
2022-12-23T00:55:41.225Z,46.90
2022-12-23T00:58:43.507Z,40.67
2022-12-23T01:02:05.550Z,46.43
2022-12-23T01:05:29.707Z,45.90
2022-12-23T01:08:32.650Z,48.47
2022-12-23T01:11:34.888Z,40.15
2022-12-23T01:14:37.557Z,45.10
2022-12-23T01:17:39.792Z,41.05
2022-12-23T01:20:42.454Z,46.30
2022-12-23T01:23:44.838Z,49.05
2022-12-23T01:26:47.408Z,44.88
2022-12-23T01:29:49.733Z,45.35
2022-12-23T01:32:52.315Z,43.63
2022-12-23T01:36:02.937Z,45.40
2022-12-23T01:39:05.583Z,47.40
2022-12-23T01:42:38.143Z,51.03
2022-12-23T01:45:40.720Z,57.80
2022-12-23T01:48:50.863Z,53.90
2022-12-23T01:51:53.527Z,49.97
2022-12-23T01:54:56.560Z,52.03
2022-12-23T01:58:11.230Z,60.90
2022-12-23T02:01:32.780Z,52.15
2022-12-23T02:04:35.891Z,59.58
2022-12-23T02:07:56.857Z,61.95
2022-12-23T02:11:21.995Z,56.28
2022-12-23T02:15:21.020Z,63.95
2022-12-23T02:18:53.745Z,57.40
2022-12-23T02:22:08.461Z,55.58
2022-12-23T02:25:41.494Z,59.78
2022-12-23T02:28:57.870Z,52.83
2022-12-23T02:32:03.279Z,53.97
2022-12-23T02:35:46.784Z,58.05
2022-12-23T02:38:56.588Z,55.47
2022-12-23T02:42:22.305Z,63.95
2022-12-23T02:45:28.149Z,58.00
2022-12-23T02:48:33.285Z,67.20
2022-12-23T02:51:42.822Z,66.18
2022-12-23T02:54:50.253Z,68.45
2022-12-23T02:57:55.489Z,66.47
2022-12-23T03:00:59.883Z,55.72
2022-12-23T03:04:02.823Z,59.22
2022-12-23T03:07:08.138Z,58.77
2022-12-23T03:10:18.418Z,70.60
2022-12-23T03:13:35.888Z,71.45
2022-12-23T03:17:00.369Z,67.57
2022-12-23T03:20:20.576Z,65.30
2022-12-23T03:23:28.794Z,65.85
2022-12-23T03:26:40.207Z,70.55
2022-12-23T03:29:55.431Z,73.37
2022-12-23T03:33:19.360Z,70.80
2022-12-23T03:40:07.027Z,84.68
2022-12-23T03:43:19.251Z,79.87
2022-12-23T03:46:40.124Z,81.12
2022-12-23T03:49:51.263Z,71.90
2022-12-23T03:53:01.222Z,72.70
2022-12-23T03:56:14.118Z,66.30
2022-12-23T03:59:21.913Z,69.87
2022-12-23T04:02:46.621Z,68.28
2022-12-23T04:05:57.425Z,75.75
2022-12-23T04:09:01.392Z,80.10
2022-12-23T04:12:04.408Z,71.15
2022-12-23T04:15:12.483Z,73.37
2022-12-23T04:18:16.470Z,72.68
2022-12-23T04:21:18.667Z,63.15
2022-12-23T04:24:21.242Z,78.70
2022-12-23T04:27:23.452Z,76.40
2022-12-23T04:30:31.583Z,70.30
2022-12-23T04:33:36.495Z,63.20
2022-12-23T04:36:38.965Z,59.55
2022-12-23T04:39:41.157Z,65.85
2022-12-23T04:42:43.707Z,51.75
2022-12-23T04:45:51.592Z,53.65
2022-12-23T04:48:54.146Z,52.97
2022-12-23T04:51:56.348Z,64.32
2022-12-23T04:54:58.835Z,61.83
2022-12-23T04:58:01.075Z,57.55
2022-12-23T05:01:09.444Z,50.92
2022-12-23T05:04:12.005Z,53.20
2022-12-23T05:07:14.657Z,49.25
2022-12-23T05:10:16.973Z,49.88
2022-12-23T05:13:19.597Z,58.20
2022-12-23T05:16:21.829Z,50.22
2022-12-23T05:19:24.356Z,51.92
2022-12-23T05:22:26.584Z,49.95
2022-12-23T05:25:29.093Z,47.38
2022-12-23T05:28:31.652Z,48.15
2022-12-23T05:31:34.336Z,55.03
2022-12-23T05:34:36.799Z,42.03
2022-12-23T05:37:39.395Z,39.60
2022-12-23T05:40:41.675Z,43.63
2022-12-23T05:43:44.248Z,50.00
2022-12-23T05:46:46.459Z,44.42
2022-12-23T05:49:48.971Z,45.42
2022-12-23T05:52:51.235Z,50.53
2022-12-23T05:55:53.714Z,46.55
2022-12-23T05:58:55.844Z,38.47
2022-12-23T06:01:58.483Z,42.00
2022-12-23T06:05:01.179Z,43.00
2022-12-23T06:08:03.800Z,46.03
2022-12-23T06:11:06.450Z,34.38
2022-12-23T06:14:08.614Z,35.67
2022-12-23T06:17:11.133Z,36.58
2022-12-23T06:20:20.026Z,31.92
2022-12-23T06:23:23.687Z,39.78
2022-12-23T06:26:26.457Z,44.78
2022-12-23T06:29:29.319Z,41.88
2022-12-23T06:32:37.761Z,47.72
2022-12-23T06:35:41.094Z,46.42
2022-12-23T06:38:43.293Z,44.05
2022-12-23T06:41:45.961Z,47.33
2022-12-23T06:44:48.125Z,41.45
2022-12-23T06:47:50.575Z,38.80
2022-12-23T06:50:52.761Z,38.67
2022-12-23T06:53:55.445Z,31.48
2022-12-23T06:56:57.665Z,46.10
2022-12-23T07:00:00.164Z,30.23
2022-12-23T07:03:02.521Z,36.08
2022-12-23T07:06:06.363Z,41.47
2022-12-23T07:09:08.679Z,35.83
2022-12-23T07:12:11.366Z,37.45
2022-12-23T07:15:13.729Z,39.95
2022-12-23T07:18:16.249Z,35.35
2022-12-23T07:21:28.270Z,43.45
2022-12-23T07:24:31.899Z,44.63
2022-12-23T07:27:34.080Z,40.22
2022-12-23T07:30:36.977Z,32.35
2022-12-23T07:33:39.232Z,33.20
2022-12-23T07:36:41.734Z,40.55
2022-12-23T07:39:43.927Z,38.22
2022-12-23T07:42:49.669Z,37.53
2022-12-23T07:45:59.145Z,39.40
2022-12-23T07:49:02.864Z,31.52
2022-12-23T07:52:05.111Z,37.13
2022-12-23T07:55:08.060Z,42.28
2022-12-23T07:58:10.252Z,37.25
2022-12-23T08:01:12.841Z,35.33
2022-12-23T08:04:17.850Z,37.58
2022-12-23T08:07:20.071Z,37.72
2022-12-23T08:10:22.796Z,35.37
2022-12-23T08:13:25.089Z,31.75
2022-12-23T08:16:27.754Z,40.65
2022-12-23T08:19:30.148Z,32.92
2022-12-23T08:22:32.758Z,35.00
2022-12-23T08:25:34.966Z,42.58
2022-12-23T08:28:39.230Z,46.85
2022-12-23T08:31:41.458Z,38.42
2022-12-23T08:34:44.689Z,41.78
2022-12-23T08:37:46.956Z,47.58
2022-12-23T08:40:49.448Z,43.83
2022-12-23T08:43:51.770Z,37.17
2022-12-23T08:46:55.513Z,41.30
2022-12-23T08:49:57.675Z,35.38
2022-12-23T08:53:00.185Z,37.83
2022-12-23T08:56:08.060Z,43.08
2022-12-23T08:59:19.081Z,38.17
2022-12-23T09:02:22.154Z,41.45
2022-12-23T09:05:24.845Z,43.15
2022-12-23T09:08:27.059Z,46.10
2022-12-23T09:11:30.144Z,43.87
2022-12-23T09:14:32.399Z,42.33
2022-12-23T09:17:35.365Z,45.87
2022-12-23T09:20:38.905Z,48.00
2022-12-23T09:23:41.588Z,43.38
2022-12-23T09:26:43.820Z,36.55
2022-12-23T09:29:46.242Z,43.55
2022-12-23T09:32:48.448Z,46.75
2022-12-23T09:35:50.944Z,35.85
2022-12-23T09:38:58.294Z,36.28
2022-12-23T09:42:26.541Z,34.90
2022-12-23T09:45:54.328Z,33.65
2022-12-23T09:49:06.219Z,46.30
2022-12-23T09:52:12.013Z,36.35
2022-12-23T09:55:15.737Z,40.92
2022-12-23T09:58:29.312Z,43.87
2022-12-23T10:05:16.398Z,30.10
2022-12-23T10:08:44.165Z,42.40
2022-12-23T10:11:49.703Z,38.53
2022-12-23T10:14:55.743Z,36.60
2022-12-23T10:18:03.920Z,43.63
2022-12-23T10:21:11.965Z,39.03
2022-12-23T10:24:34.091Z,35.58
2022-12-23T10:27:41.449Z,37.92
2022-12-23T10:31:11.083Z,33.67
2022-12-23T10:34:22.705Z,37.67
2022-12-23T10:37:51.800Z,38.63
2022-12-23T10:41:09.955Z,37.63
2022-12-23T10:44:36.602Z,37.15
2022-12-23T10:47:52.697Z,39.92
2022-12-23T10:51:04.395Z,40.90
2022-12-23T10:54:26.630Z,48.87
2022-12-23T10:57:29.582Z,40.88
2022-12-23T11:00:31.823Z,41.53
2022-12-23T11:03:41.447Z,41.00
2022-12-23T11:06:48.257Z,38.83
2022-12-23T11:10:01.061Z,34.88
2022-12-23T11:13:03.535Z,39.50
2022-12-23T11:16:13.395Z,36.80
2022-12-23T11:19:16.074Z,46.47
2022-12-23T11:22:24.416Z,41.78
2022-12-23T11:25:46.122Z,41.13
2022-12-23T11:28:51.321Z,41.22
2022-12-23T11:31:54.353Z,40.20
2022-12-23T11:34:57.099Z,44.42
2022-12-23T11:38:01.917Z,57.47
2022-12-23T11:41:05.244Z,47.03
2022-12-23T11:44:22.081Z,45.53
2022-12-23T11:47:43.800Z,41.15
2022-12-23T11:50:58.592Z,46.78
2022-12-23T11:54:02.925Z,51.05
2022-12-23T11:57:17.359Z,46.63
2022-12-23T12:00:55.295Z,46.97
2022-12-23T12:04:03.334Z,44.92
2022-12-23T12:07:11.673Z,51.95
2022-12-23T12:10:21.056Z,47.55
2022-12-23T12:13:28.497Z,45.35
2022-12-23T12:16:31.086Z,48.50
2022-12-23T12:19:48.176Z,49.00
2022-12-23T12:22:57.839Z,43.58
2022-12-23T12:26:04.754Z,41.47
2022-12-23T12:29:23.620Z,41.47
2022-12-23T12:32:31.744Z,48.35
2022-12-23T12:35:58.957Z,47.15
2022-12-23T12:39:04.166Z,50.88
2022-12-23T12:42:36.767Z,45.70
2022-12-23T12:45:50.502Z,42.42
2022-12-23T12:49:19.098Z,46.97
2022-12-23T12:52:25.257Z,47.62
2022-12-23T12:55:36.154Z,47.35
2022-12-23T12:58:40.752Z,56.40
2022-12-23T13:02:15.563Z,39.88
2022-12-23T13:05:45.949Z,46.70
2022-12-23T13:09:00.116Z,55.47
2022-12-23T13:12:22.511Z,50.12
2022-12-23T13:15:53.942Z,47.47
2022-12-23T13:19:03.375Z,50.83
2022-12-23T13:22:11.137Z,55.33
2022-12-23T13:25:25.540Z,45.17
2022-12-23T13:28:47.281Z,48.30
2022-12-23T13:32:02.186Z,46.80
2022-12-23T13:35:32.136Z,51.60
2022-12-23T13:38:49.124Z,44.40
2022-12-23T13:41:58.596Z,52.03
2022-12-23T13:45:06.752Z,53.10
2022-12-23T13:48:18.366Z,49.80
2022-12-23T13:51:31.822Z,52.67
2022-12-23T13:54:43.679Z,50.83
2022-12-23T13:57:57.099Z,50.05
2022-12-23T14:01:08.728Z,47.88
2022-12-23T14:04:33.084Z,49.72
2022-12-23T14:10:39.120Z,42.42
2022-12-23T14:18:12.496Z,43.00
2022-12-23T14:21:36.114Z,50.50
2022-12-23T14:24:57.632Z,47.85
2022-12-23T14:28:15.238Z,45.30
2022-12-23T14:31:31.986Z,53.33
2022-12-23T14:34:36.128Z,47.00
2022-12-23T14:37:38.634Z,51.40
2022-12-23T14:40:44.070Z,44.17
2022-12-23T14:43:46.476Z,46.42
2022-12-23T14:46:48.717Z,46.03
2022-12-23T14:49:51.689Z,50.00
2022-12-23T14:53:00.588Z,52.30
2022-12-23T14:56:15.557Z,50.25
2022-12-23T14:59:20.700Z,47.13
2022-12-23T15:02:35.200Z,51.00
2022-12-23T15:05:39.443Z,54.80
2022-12-23T15:08:43.571Z,49.72
2022-12-23T15:11:46.148Z,44.08
2022-12-23T15:15:01.932Z,49.33
2022-12-23T15:18:06.611Z,46.90
2022-12-23T15:21:13.287Z,46.22
2022-12-23T15:24:21.308Z,48.13
2022-12-23T15:27:29.310Z,44.33
2022-12-23T15:30:46.170Z,47.83
2022-12-23T15:34:06.958Z,52.95
2022-12-23T15:37:12.761Z,47.05
2022-12-23T15:40:35.091Z,48.60
2022-12-23T15:43:41.821Z,44.28
2022-12-23T15:46:44.881Z,46.15
2022-12-23T15:49:47.139Z,42.23
2022-12-23T15:55:53.115Z,45.30
2022-12-23T15:58:56.659Z,45.70
2022-12-23T16:01:59.053Z,51.80
2022-12-23T16:05:06.012Z,53.70
2022-12-23T16:08:28.680Z,51.22
2022-12-23T16:11:54.630Z,46.17
2022-12-23T16:18:19.321Z,51.20
2022-12-23T16:21:27.721Z,49.60
2022-12-23T16:24:30.308Z,57.75
2022-12-23T16:27:42.594Z,46.67
2022-12-23T16:30:49.501Z,44.13
2022-12-23T16:33:55.662Z,49.42
2022-12-23T16:36:58.240Z,49.75
2022-12-23T16:40:03.149Z,51.30
2022-12-23T16:43:05.782Z,53.87
2022-12-23T16:46:15.472Z,46.15
2022-12-23T16:49:21.333Z,48.58
2022-12-23T16:52:24.075Z,48.58
2022-12-23T16:55:26.636Z,51.72
2022-12-23T16:58:29.665Z,44.55
2022-12-23T17:04:36.167Z,44.97
2022-12-23T17:07:45.058Z,51.10
2022-12-23T17:10:47.676Z,51.50
2022-12-23T17:13:50.440Z,49.88
2022-12-23T17:16:53.000Z,44.13
2022-12-23T17:19:57.525Z,47.70
2022-12-23T17:23:00.377Z,49.33
2022-12-23T17:26:02.991Z,54.85
2022-12-23T17:29:05.779Z,54.50
2022-12-23T17:32:17.859Z,53.03
2022-12-23T17:35:20.923Z,42.70
2022-12-23T17:38:23.542Z,45.35
2022-12-23T17:41:29.303Z,45.10
2022-12-23T17:44:31.862Z,46.78
2022-12-23T17:47:34.044Z,43.63
2022-12-23T17:50:37.180Z,49.33
2022-12-23T17:53:39.532Z,48.70
2022-12-23T17:56:42.064Z,48.20
2022-12-23T17:59:47.697Z,46.92
2022-12-23T18:02:51.485Z,46.67
2022-12-23T18:09:04.151Z,48.45
2022-12-23T18:12:07.639Z,44.17
2022-12-23T18:15:19.672Z,38.33
2022-12-23T18:18:32.079Z,43.85
2022-12-23T18:21:38.253Z,47.97
2022-12-23T18:24:40.819Z,45.33
2022-12-23T18:27:43.148Z,42.47
2022-12-23T18:30:45.638Z,42.15
2022-12-23T18:33:48.567Z,47.35
2022-12-23T18:36:51.950Z,39.00
2022-12-23T18:39:54.632Z,41.10
2022-12-23T18:42:57.448Z,45.43
2022-12-23T18:45:59.770Z,47.45
2022-12-23T18:49:02.341Z,34.47
2022-12-23T18:52:12.421Z,45.47
2022-12-23T18:55:15.069Z,45.60
2022-12-23T18:58:20.747Z,39.75
2022-12-23T19:01:23.333Z,44.88
2022-12-23T19:04:28.760Z,45.95
2022-12-23T19:07:31.302Z,51.53
2022-12-23T19:10:34.027Z,49.47
2022-12-23T19:13:36.576Z,46.67
2022-12-23T19:16:39.162Z,52.45
2022-12-23T19:19:41.748Z,45.12
2022-12-23T19:22:44.329Z,44.33
2022-12-23T19:25:54.483Z,45.17
2022-12-23T19:28:57.281Z,37.15
2022-12-23T19:31:59.834Z,41.42
2022-12-23T19:35:02.136Z,38.47
2022-12-23T19:38:04.648Z,44.95
2022-12-23T19:41:07.733Z,50.95
2022-12-23T19:44:10.282Z,44.03
2022-12-23T19:47:12.499Z,33.78
2022-12-23T19:50:15.017Z,40.10
2022-12-23T19:53:17.396Z,35.65
2022-12-23T19:56:23.410Z,46.13
2022-12-23T19:59:25.673Z,29.60
2022-12-23T20:02:28.663Z,36.13
2022-12-23T20:05:31.298Z,35.75
2022-12-23T20:08:34.708Z,33.53
2022-12-23T20:14:40.825Z,33.95
2022-12-23T20:17:43.301Z,41.08
2022-12-23T20:20:45.492Z,39.80
2022-12-23T20:23:48.359Z,47.08
2022-12-23T20:26:50.737Z,41.85
2022-12-23T20:29:53.256Z,35.10
2022-12-23T20:32:55.590Z,38.85
2022-12-23T20:35:58.426Z,35.30
2022-12-23T20:39:03.266Z,44.10
2022-12-23T20:42:05.916Z,44.75
2022-12-23T20:45:08.476Z,43.87
2022-12-23T20:48:10.934Z,40.42
2022-12-23T20:51:20.723Z,41.55
2022-12-23T20:54:29.752Z,37.85
2022-12-23T20:57:35.838Z,34.65
2022-12-23T21:03:41.102Z,42.28
2022-12-23T21:06:44.424Z,41.35
2022-12-23T21:09:46.605Z,45.30
2022-12-23T21:12:49.149Z,44.50
2022-12-23T21:15:51.381Z,39.80
2022-12-23T21:18:54.091Z,39.92
2022-12-23T21:21:56.805Z,39.42
2022-12-23T21:24:59.292Z,39.30
2022-12-23T21:28:01.536Z,37.47
2022-12-23T21:31:04.403Z,45.20
2022-12-23T21:34:07.347Z,45.63
2022-12-23T21:37:09.874Z,41.22
2022-12-23T21:40:12.515Z,45.05
2022-12-23T21:43:15.051Z,37.90
2022-12-23T21:46:20.697Z,46.78
2022-12-23T21:49:23.743Z,46.22
2022-12-23T21:52:25.932Z,40.28
2022-12-23T21:55:28.408Z,46.47
2022-12-23T21:58:31.454Z,42.03
2022-12-23T22:01:34.683Z,40.97
2022-12-23T22:04:39.298Z,40.30
2022-12-23T22:07:41.467Z,36.42
2022-12-23T22:10:45.575Z,39.58
2022-12-23T22:13:48.292Z,44.13
2022-12-23T22:16:50.857Z,41.05
2022-12-23T22:19:53.000Z,38.15
2022-12-23T22:22:55.715Z,41.92
2022-12-23T22:25:57.934Z,41.60
2022-12-23T22:29:04.118Z,47.45
2022-12-23T22:32:06.409Z,40.15
2022-12-23T22:35:09.129Z,35.95
2022-12-23T22:38:11.352Z,41.00
2022-12-23T22:41:16.080Z,39.42
2022-12-23T22:44:19.349Z,40.30
2022-12-23T22:50:23.946Z,37.03
2022-12-23T22:53:29.911Z,36.13
2022-12-23T22:56:32.385Z,38.67
2022-12-23T22:59:34.926Z,44.85
2022-12-23T23:02:37.336Z,40.30
2022-12-23T23:05:39.963Z,38.90
2022-12-23T23:08:42.557Z,38.22
2022-12-23T23:11:45.627Z,44.30
2022-12-23T23:14:53.723Z,40.17
2022-12-23T23:17:56.496Z,39.42
2022-12-23T23:20:59.643Z,36.78
2022-12-23T23:24:02.373Z,37.10
2022-12-23T23:27:04.906Z,43.87
2022-12-23T23:30:08.121Z,42.50
2022-12-23T23:33:10.595Z,47.50
2022-12-23T23:36:13.366Z,44.47
2022-12-23T23:39:15.578Z,42.85
2022-12-23T23:42:18.391Z,54.97
2022-12-23T23:45:20.971Z,47.42
2022-12-23T23:48:23.538Z,36.55
2022-12-23T23:51:26.209Z,40.95
2022-12-23T23:54:28.735Z,39.67
2022-12-23T23:57:30.974Z,44.72
